Terminal Aerodrome Forecast
Issued by NWS

Home | Current Version | Previous Version | Graphics & Text | Print | Product List | Glossary On
Versions: 1 2 3 4 5 6 7 8 9 10 11 12 13 14 15 16 17
896
FTUS43 KMPX 200256 AAA
TAFRNH
TAF AMD
KRNH 200256Z 2003/2024 04011KT P6SM OVC008
     FM200900 04006KT 1SM -SNPL BR VV007
     FM201100 02006KT 3SM -SNPL BR OVC009
     FM201300 01007KT P6SM OVC010
     FM202000 31008KT P6SM OVC015=

USA.gov is the U.S. government's official web portal to all federal, state and local government web resources and services.